createdAt,value
2019-03-23T00:01:56.728Z,57.86
2019-03-23T00:04:27.754Z,57.83
2019-03-23T00:06:59.746Z,57.57
2019-03-23T00:09:30.689Z,57.54
2019-03-23T00:12:01.659Z,57.07
2019-03-23T00:14:32.677Z,56.48
2019-03-23T00:17:03.919Z,57.66
2019-03-23T00:19:34.934Z,57.40
2019-03-23T00:22:05.983Z,56.69
2019-03-23T00:24:36.973Z,57.43
2019-03-23T00:27:08.005Z,57.16
2019-03-23T00:29:38.956Z,57.50
2019-03-23T00:32:10.061Z,56.87
2019-03-23T00:34:42.125Z,57.33
2019-03-23T00:37:13.089Z,57.20
2019-03-23T00:39:44.115Z,57.19
2019-03-23T00:42:15.160Z,56.33
2019-03-23T00:44:46.393Z,56.61
2019-03-23T00:47:17.619Z,56.85
2019-03-23T00:49:48.736Z,56.43
2019-03-23T00:52:19.825Z,56.03
2019-03-23T00:54:50.919Z,55.72
2019-03-23T00:57:21.907Z,55.51
2019-03-23T00:59:52.964Z,55.54
2019-03-23T01:02:24.887Z,55.34
2019-03-23T01:04:55.868Z,55.05
2019-03-23T01:07:27.042Z,54.88
2019-03-23T01:09:58.089Z,55.22
2019-03-23T01:12:29.057Z,54.83
2019-03-23T01:15:00.320Z,55.00
2019-03-23T01:17:31.255Z,54.64
2019-03-23T01:20:02.351Z,54.24
2019-03-23T01:22:33.307Z,54.95
2019-03-23T01:25:06.854Z,54.37
2019-03-23T01:27:37.812Z,54.42
2019-03-23T01:30:13.632Z,54.83
2019-03-23T01:32:44.563Z,54.06
2019-03-23T01:35:15.609Z,54.01
2019-03-23T01:37:46.618Z,54.29
2019-03-23T01:40:17.630Z,54.47
2019-03-23T01:42:48.607Z,55.02
2019-03-23T01:45:19.749Z,54.47
2019-03-23T01:47:50.727Z,55.12
2019-03-23T01:50:21.804Z,54.64
2019-03-23T01:52:52.793Z,54.81
2019-03-23T01:55:23.844Z,55.05
2019-03-23T01:57:54.718Z,55.28
2019-03-23T02:00:25.652Z,54.56
2019-03-23T02:02:56.825Z,54.59
2019-03-23T02:05:27.844Z,54.97
2019-03-23T02:07:58.808Z,55.51
2019-03-23T02:10:29.955Z,55.36
2019-03-23T02:13:01.101Z,54.60
2019-03-23T02:15:32.169Z,54.69
2019-03-23T02:18:03.184Z,54.99
2019-03-23T02:20:34.649Z,55.33
2019-03-23T02:23:05.699Z,55.05
2019-03-23T02:25:36.826Z,55.88
2019-03-23T02:28:08.404Z,56.29
2019-03-23T02:30:42.563Z,56.61
2019-03-23T02:33:15.241Z,56.55
2019-03-23T02:35:46.222Z,56.92
2019-03-23T02:38:17.369Z,56.63
2019-03-23T02:40:48.463Z,57.06
2019-03-23T02:43:19.478Z,56.18
2019-03-23T02:45:50.666Z,56.50
2019-03-23T02:48:21.805Z,56.66
2019-03-23T02:50:52.755Z,55.58
2019-03-23T02:53:23.924Z,55.82
2019-03-23T02:55:54.977Z,55.61
2019-03-23T02:58:28.678Z,54.87
2019-03-23T03:00:59.619Z,54.84
2019-03-23T03:03:31.788Z,54.90
2019-03-23T03:06:02.825Z,55.00
2019-03-23T03:08:33.977Z,54.96
2019-03-23T03:11:04.971Z,54.66
2019-03-23T03:13:35.958Z,54.34
2019-03-23T03:16:06.887Z,54.55
2019-03-23T03:18:38.006Z,54.41
2019-03-23T03:21:09.117Z,54.35
2019-03-23T03:23:40.190Z,55.05
2019-03-23T03:26:11.182Z,54.99
2019-03-23T03:28:42.185Z,54.82
2019-03-23T03:31:13.126Z,55.32
2019-03-23T03:33:44.008Z,55.70
2019-03-23T03:36:15.098Z,55.07
2019-03-23T03:38:46.171Z,55.50
2019-03-23T03:41:17.399Z,55.58
2019-03-23T03:43:48.329Z,55.53
2019-03-23T03:46:19.605Z,55.74
2019-03-23T03:48:50.643Z,56.05
2019-03-23T03:51:21.626Z,56.19
2019-03-23T03:53:52.637Z,56.44
2019-03-23T03:56:23.607Z,57.06
2019-03-23T03:58:54.596Z,56.79
2019-03-23T04:01:25.596Z,57.44
2019-03-23T04:03:56.620Z,57.27
2019-03-23T04:06:27.563Z,57.76
2019-03-23T04:08:58.467Z,57.61
2019-03-23T04:11:29.348Z,58.08
2019-03-23T04:14:00.500Z,58.62
2019-03-23T04:16:31.520Z,58.92
2019-03-23T04:19:02.835Z,59.52
2019-03-23T04:21:33.828Z,59.34
2019-03-23T04:24:04.710Z,59.29
2019-03-23T04:26:39.065Z,59.38
2019-03-23T04:29:08.440Z,58.84
2019-03-23T04:31:39.326Z,58.51
2019-03-23T04:34:10.347Z,58.57
2019-03-23T04:36:41.297Z,58.92
2019-03-23T04:39:12.319Z,58.78
2019-03-23T04:41:43.496Z,58.80
2019-03-23T04:44:14.497Z,59.20
2019-03-23T04:46:45.570Z,59.36
2019-03-23T04:49:16.712Z,58.74
2019-03-23T04:51:47.754Z,58.14
2019-03-23T04:54:18.732Z,58.10
2019-03-23T04:56:49.725Z,58.53
2019-03-23T04:59:20.739Z,57.86
2019-03-23T05:01:52.050Z,58.36
2019-03-23T05:04:23.218Z,58.52
2019-03-23T05:06:54.340Z,58.34
2019-03-23T05:09:25.290Z,57.69
2019-03-23T05:11:56.307Z,58.83
2019-03-23T05:14:27.358Z,57.99
2019-03-23T05:16:58.303Z,58.43
2019-03-23T05:19:29.864Z,58.29
2019-03-23T05:22:01.457Z,58.48
2019-03-23T05:24:32.502Z,58.72
2019-03-23T05:27:03.584Z,58.67
2019-03-23T05:29:37.512Z,58.57
2019-03-23T05:32:08.656Z,59.12
2019-03-23T05:34:40.440Z,58.68
2019-03-23T05:37:11.359Z,58.36
2019-03-23T05:39:42.653Z,58.79
2019-03-23T05:42:13.735Z,59.23
2019-03-23T05:44:44.706Z,59.53
2019-03-23T05:47:15.818Z,59.67
2019-03-23T05:49:46.770Z,59.61
2019-03-23T05:52:17.778Z,60.20
2019-03-23T05:54:48.910Z,60.17
2019-03-23T05:57:19.986Z,60.38
2019-03-23T05:59:50.962Z,59.87
2019-03-23T06:02:21.852Z,59.76
2019-03-23T06:04:52.871Z,59.11
2019-03-23T06:07:25.482Z,59.73
2019-03-23T06:09:56.419Z,59.54
2019-03-23T06:12:27.458Z,59.89
2019-03-23T06:14:58.316Z,58.86
2019-03-23T06:17:29.327Z,58.32
2019-03-23T06:20:00.366Z,58.78
2019-03-23T06:22:31.332Z,58.47
2019-03-23T06:25:02.529Z,56.69
2019-03-23T06:27:33.542Z,57.06
2019-03-23T06:30:05.904Z,56.86
2019-03-23T06:32:37.001Z,56.82
2019-03-23T06:35:08.588Z,57.42
2019-03-23T06:37:39.696Z,56.67
2019-03-23T06:40:11.208Z,56.28
2019-03-23T06:42:42.339Z,56.34
2019-03-23T06:45:13.444Z,57.32
2019-03-23T06:47:44.646Z,57.69
2019-03-23T06:50:15.619Z,55.00
2019-03-23T06:52:46.663Z,56.55
2019-03-23T06:55:17.693Z,56.82
2019-03-23T06:57:48.861Z,57.42
2019-03-23T07:00:19.775Z,56.98
2019-03-23T07:02:50.797Z,56.17
2019-03-23T07:05:21.788Z,56.88
2019-03-23T07:07:53.053Z,56.73
2019-03-23T07:10:24.147Z,56.36
2019-03-23T07:12:55.139Z,56.23
2019-03-23T07:15:26.192Z,56.71
2019-03-23T07:17:57.160Z,56.96
2019-03-23T07:20:28.223Z,56.71
2019-03-23T07:22:59.174Z,55.27
2019-03-23T07:25:30.116Z,55.13
2019-03-23T07:28:01.115Z,54.73
2019-03-23T07:30:32.131Z,54.81
2019-03-23T07:33:03.333Z,55.55
2019-03-23T07:35:34.443Z,56.57
2019-03-23T07:38:05.577Z,55.13
2019-03-23T07:40:36.646Z,54.40
2019-03-23T07:43:07.886Z,55.55
2019-03-23T07:45:38.875Z,54.69
2019-03-23T07:48:10.031Z,55.76
2019-03-23T07:50:41.312Z,54.74
2019-03-23T07:53:12.289Z,52.84
2019-03-23T07:55:43.343Z,52.68
2019-03-23T07:58:14.323Z,53.90
2019-03-23T08:00:45.271Z,55.00
2019-03-23T08:03:16.304Z,55.60
2019-03-23T08:05:47.600Z,55.97
2019-03-23T08:08:18.655Z,56.07
2019-03-23T08:10:49.578Z,56.98
2019-03-23T08:13:21.797Z,57.46
2019-03-23T08:15:57.591Z,57.95
2019-03-23T08:18:28.749Z,59.39
2019-03-23T08:20:59.923Z,60.11
2019-03-23T08:23:31.153Z,59.76
2019-03-23T08:26:02.290Z,59.39
2019-03-23T08:28:33.535Z,59.99
2019-03-23T08:31:04.751Z,59.46
2019-03-23T08:33:35.854Z,59.50
2019-03-23T08:36:06.907Z,61.18
2019-03-23T08:38:38.943Z,63.33
2019-03-23T08:41:10.115Z,63.23
2019-03-23T08:43:41.133Z,62.69
2019-03-23T08:46:12.180Z,62.70
2019-03-23T08:48:43.292Z,63.28
2019-03-23T08:51:14.243Z,64.34
2019-03-23T08:53:45.271Z,66.97
2019-03-23T08:56:17.134Z,66.96
2019-03-23T08:58:47.067Z,68.46
2019-03-23T09:01:18.102Z,69.04
2019-03-23T09:03:52.746Z,69.31
2019-03-23T09:06:21.925Z,67.71
2019-03-23T09:08:53.126Z,66.66
2019-03-23T09:11:24.103Z,66.80
2019-03-23T09:13:55.098Z,64.51
2019-03-23T09:16:26.192Z,65.98
2019-03-23T09:18:57.184Z,66.74
2019-03-23T09:21:28.262Z,66.23
2019-03-23T09:23:59.299Z,66.78
2019-03-23T09:26:30.274Z,66.15
2019-03-23T09:29:01.348Z,66.77
2019-03-23T09:31:32.401Z,65.96
2019-03-23T09:34:03.466Z,65.57
2019-03-23T09:36:34.462Z,65.46
2019-03-23T09:39:07.356Z,64.61
2019-03-23T09:41:38.428Z,63.42
2019-03-23T09:44:09.432Z,62.15
2019-03-23T09:46:40.453Z,61.20
2019-03-23T09:49:11.694Z,62.26
2019-03-23T09:51:43.867Z,62.13
2019-03-23T09:54:15.002Z,61.73
2019-03-23T09:56:46.095Z,60.74
2019-03-23T09:59:17.217Z,61.29
2019-03-23T10:01:48.138Z,63.58
2019-03-23T10:04:19.322Z,64.08
2019-03-23T10:06:50.409Z,63.02
2019-03-23T10:09:21.769Z,62.97
2019-03-23T10:11:52.726Z,62.34
2019-03-23T10:14:23.755Z,62.37
2019-03-23T10:16:54.709Z,61.48
2019-03-23T10:19:25.742Z,62.17
2019-03-23T10:21:56.877Z,61.44
2019-03-23T10:24:27.761Z,61.77
2019-03-23T10:26:58.781Z,61.21
2019-03-23T10:29:29.739Z,61.26
2019-03-23T10:32:00.730Z,60.62
2019-03-23T10:34:31.677Z,59.98
2019-03-23T10:37:03.039Z,60.24
2019-03-23T10:39:34.288Z,60.55
2019-03-23T10:42:05.259Z,60.20
2019-03-23T10:44:36.308Z,58.97
2019-03-23T10:47:07.449Z,59.14
2019-03-23T10:49:38.581Z,59.02
2019-03-23T10:52:09.596Z,58.58
2019-03-23T10:54:40.636Z,58.99
2019-03-23T10:57:11.681Z,60.17
2019-03-23T10:59:42.711Z,60.98
2019-03-23T11:02:13.835Z,61.74
2019-03-23T11:04:45.006Z,62.33
2019-03-23T11:07:16.079Z,61.89
2019-03-23T11:09:47.112Z,62.26
2019-03-23T11:12:18.042Z,61.92
2019-03-23T11:14:49.098Z,61.11
2019-03-23T11:17:21.240Z,60.23
2019-03-23T11:19:52.435Z,60.23
2019-03-23T11:22:23.550Z,59.33
2019-03-23T11:24:54.626Z,59.13
2019-03-23T11:27:25.587Z,58.99
2019-03-23T11:29:56.467Z,57.52
2019-03-23T11:32:27.512Z,56.87
2019-03-23T11:34:58.906Z,56.58
2019-03-23T11:37:30.065Z,57.05
2019-03-23T11:40:01.097Z,57.50
2019-03-23T11:42:32.197Z,58.06
2019-03-23T11:45:04.528Z,56.77
2019-03-23T11:47:35.611Z,57.90
2019-03-23T11:50:07.940Z,56.83
2019-03-23T11:52:38.995Z,56.99
2019-03-23T11:55:09.984Z,57.27
2019-03-23T11:57:41.060Z,55.45
2019-03-23T12:00:14.698Z,55.42
2019-03-23T12:02:45.662Z,56.37
2019-03-23T12:05:16.600Z,56.43
2019-03-23T12:07:47.765Z,57.39
2019-03-23T12:10:24.356Z,57.05
2019-03-23T12:12:57.586Z,56.68
2019-03-23T12:15:29.865Z,56.52
2019-03-23T12:18:00.899Z,56.43
2019-03-23T12:20:31.950Z,56.00
2019-03-23T12:23:03.181Z,54.15
2019-03-23T12:25:34.190Z,55.23
2019-03-23T12:28:05.945Z,55.29
2019-03-23T12:30:37.005Z,56.25
2019-03-23T12:33:07.997Z,56.02
2019-03-23T12:35:38.882Z,56.20
2019-03-23T12:38:09.796Z,56.59
2019-03-23T12:40:40.828Z,56.37
2019-03-23T12:43:11.835Z,54.91
2019-03-23T12:45:43.671Z,54.78
2019-03-23T12:48:14.657Z,54.33
2019-03-23T12:50:45.683Z,54.91
2019-03-23T12:53:16.730Z,55.26
2019-03-23T12:55:47.763Z,55.33
2019-03-23T12:58:18.691Z,54.69
2019-03-23T13:00:49.843Z,55.40
2019-03-23T13:03:20.855Z,55.38
2019-03-23T13:05:51.909Z,55.70
2019-03-23T13:08:22.879Z,54.68
2019-03-23T13:10:53.953Z,54.53
2019-03-23T13:13:25.080Z,54.13
2019-03-23T13:15:56.162Z,54.83
2019-03-23T13:18:27.591Z,55.28
2019-03-23T13:20:58.726Z,55.68
2019-03-23T13:23:29.892Z,54.99
2019-03-23T13:26:01.204Z,55.22
2019-03-23T13:28:32.315Z,56.14
2019-03-23T13:31:03.283Z,55.66
2019-03-23T13:33:34.278Z,54.74
2019-03-23T13:36:05.543Z,55.36
2019-03-23T13:38:36.434Z,54.74
2019-03-23T13:41:07.517Z,55.35
2019-03-23T13:43:38.527Z,55.07
2019-03-23T13:46:09.937Z,55.79
2019-03-23T13:48:40.921Z,55.33
2019-03-23T13:51:11.967Z,55.73
2019-03-23T13:53:43.074Z,55.84
2019-03-23T13:56:14.223Z,56.10
2019-03-23T13:58:45.136Z,56.72
2019-03-23T14:01:16.224Z,56.69
2019-03-23T14:03:47.138Z,57.10
2019-03-23T14:06:18.145Z,56.93
2019-03-23T14:08:49.212Z,57.21
2019-03-23T14:11:20.716Z,57.55
2019-03-23T14:13:51.817Z,57.35
2019-03-23T14:16:22.727Z,57.24
2019-03-23T14:18:53.682Z,57.66
2019-03-23T14:21:24.857Z,57.58
2019-03-23T14:23:57.411Z,57.95
2019-03-23T14:26:28.393Z,57.55
2019-03-23T14:28:59.267Z,58.16
2019-03-23T14:31:30.285Z,57.72
2019-03-23T14:34:01.169Z,57.61
2019-03-23T14:36:32.222Z,57.72
2019-03-23T14:39:04.742Z,57.78
2019-03-23T14:41:35.842Z,57.73
2019-03-23T14:44:06.986Z,57.91
2019-03-23T14:46:38.117Z,57.95
2019-03-23T14:49:09.195Z,58.10
2019-03-23T14:51:40.268Z,58.02
2019-03-23T14:54:11.319Z,57.45
2019-03-23T14:56:42.334Z,57.89
2019-03-23T14:59:14.523Z,57.99
2019-03-23T15:01:45.556Z,58.29
2019-03-23T15:04:16.654Z,58.70
2019-03-23T15:06:47.869Z,58.50
2019-03-23T15:09:18.931Z,59.04
2019-03-23T15:11:49.998Z,58.98
2019-03-23T15:14:21.273Z,59.70
2019-03-23T15:16:52.500Z,59.19
2019-03-23T15:19:23.549Z,58.78
2019-03-23T15:21:56.255Z,59.19
2019-03-23T15:24:27.255Z,59.45
2019-03-23T15:26:58.297Z,59.37
2019-03-23T15:29:29.654Z,59.59
2019-03-23T15:32:00.711Z,59.82
2019-03-23T15:34:31.723Z,60.26
2019-03-23T15:37:02.706Z,60.91
2019-03-23T15:39:33.737Z,60.77
2019-03-23T15:42:04.943Z,60.68
2019-03-23T15:44:36.019Z,60.77
2019-03-23T15:47:07.036Z,60.78
2019-03-23T15:49:37.972Z,61.10
2019-03-23T15:52:08.971Z,60.59
2019-03-23T15:54:40.040Z,60.15
2019-03-23T15:57:11.016Z,60.84
2019-03-23T15:59:41.989Z,61.08
2019-03-23T16:02:13.083Z,61.38
2019-03-23T16:04:44.030Z,61.71
2019-03-23T16:07:14.947Z,60.85
2019-03-23T16:09:45.908Z,60.83
2019-03-23T16:12:16.965Z,61.22
2019-03-23T16:14:48.058Z,62.18
2019-03-23T16:17:19.006Z,62.69
2019-03-23T16:19:50.042Z,63.58
2019-03-23T16:22:21.224Z,64.05
2019-03-23T16:24:52.267Z,64.28
2019-03-23T16:27:23.220Z,64.83
2019-03-23T16:29:54.117Z,64.58
2019-03-23T16:32:25.081Z,64.65
2019-03-23T16:34:56.229Z,64.84
2019-03-23T16:37:27.264Z,64.97
2019-03-23T16:39:58.311Z,64.83
2019-03-23T16:42:30.234Z,64.82
2019-03-23T16:45:01.248Z,64.65
2019-03-23T16:47:32.377Z,64.72
2019-03-23T16:50:04.570Z,64.58
2019-03-23T16:52:36.927Z,64.57
2019-03-23T16:55:10.974Z,64.19
2019-03-23T16:57:42.185Z,64.08
2019-03-23T17:00:33.885Z,63.72
2019-03-23T17:03:05.752Z,62.94
2019-03-23T17:05:39.789Z,62.55
2019-03-23T17:08:11.230Z,62.98
2019-03-23T17:10:43.236Z,62.53
2019-03-23T17:13:15.432Z,62.99
2019-03-23T17:15:46.471Z,62.40
2019-03-23T17:18:17.478Z,62.57
2019-03-23T17:20:50.939Z,62.25
2019-03-23T17:23:27.320Z,62.87
2019-03-23T17:26:00.484Z,62.67
2019-03-23T17:28:31.866Z,62.53
2019-03-23T17:31:03.476Z,62.56
2019-03-23T17:33:34.918Z,62.71
2019-03-23T17:36:07.217Z,62.61
2019-03-23T17:38:38.250Z,63.16
2019-03-23T17:41:10.441Z,62.71
2019-03-23T17:43:42.018Z,62.23
2019-03-23T17:46:13.390Z,62.26
2019-03-23T17:48:44.802Z,62.69
2019-03-23T17:51:16.736Z,62.37
2019-03-23T17:53:58.089Z,62.13
2019-03-23T17:56:24.028Z,61.82
2019-03-23T17:58:55.401Z,61.78
2019-03-23T18:01:28.113Z,61.74
2019-03-23T18:04:02.319Z,61.67
2019-03-23T18:06:33.470Z,62.09
2019-03-23T18:09:05.245Z,61.80
2019-03-23T18:11:36.591Z,61.53
2019-03-23T18:14:08.052Z,62.08
2019-03-23T18:16:39.218Z,61.97
2019-03-23T18:19:10.461Z,62.07
2019-03-23T18:21:41.795Z,62.03
2019-03-23T18:24:12.940Z,62.07
2019-03-23T18:26:46.079Z,61.89
2019-03-23T18:29:18.602Z,62.26
2019-03-23T18:31:51.076Z,61.80
2019-03-23T18:34:22.334Z,61.93
2019-03-23T18:36:55.429Z,61.64
2019-03-23T18:39:26.823Z,61.92
2019-03-23T18:41:57.966Z,61.78
2019-03-23T18:44:29.510Z,62.06
2019-03-23T18:47:00.782Z,62.22
2019-03-23T18:49:33.295Z,62.15
2019-03-23T18:52:04.590Z,62.40
2019-03-23T18:54:36.348Z,62.36
2019-03-23T18:57:09.259Z,62.24
2019-03-23T18:59:40.761Z,61.85
2019-03-23T19:02:12.090Z,62.18
2019-03-23T19:04:43.333Z,62.37
2019-03-23T19:07:14.397Z,62.30
2019-03-23T19:09:45.364Z,62.54
2019-03-23T19:12:17.745Z,63.01
2019-03-23T19:14:49.103Z,62.86
2019-03-23T19:17:20.464Z,62.63
2019-03-23T19:19:52.023Z,62.82
2019-03-23T19:22:24.069Z,62.72
2019-03-23T19:24:55.691Z,62.79
2019-03-23T19:27:28.150Z,62.79
2019-03-23T19:29:59.382Z,62.86
2019-03-23T19:32:30.411Z,62.76
2019-03-23T19:35:01.742Z,62.90
2019-03-23T19:37:32.806Z,63.11
2019-03-23T19:40:07.437Z,63.17
2019-03-23T19:42:38.490Z,62.92
2019-03-23T19:45:09.556Z,63.38
2019-03-23T19:47:41.712Z,63.48
2019-03-23T19:50:13.707Z,63.18
2019-03-23T19:52:44.654Z,63.39
2019-03-23T19:55:15.742Z,63.25
2019-03-23T19:57:47.784Z,63.54
2019-03-23T20:00:18.664Z,63.61
2019-03-23T20:02:49.941Z,64.01
2019-03-23T20:05:20.897Z,64.04
2019-03-23T20:07:51.802Z,63.18
2019-03-23T20:10:22.956Z,63.72
2019-03-23T20:12:56.390Z,63.84
2019-03-23T20:15:27.352Z,63.83
2019-03-23T20:17:58.454Z,63.57
2019-03-23T20:20:29.507Z,63.53
2019-03-23T20:23:00.614Z,63.16
2019-03-23T20:25:31.821Z,63.45
2019-03-23T20:28:02.856Z,62.87
2019-03-23T20:30:33.876Z,62.88
2019-03-23T20:33:05.007Z,62.93
2019-03-23T20:35:36.065Z,63.26
2019-03-23T20:38:07.329Z,63.37
2019-03-23T20:40:38.525Z,63.71
2019-03-23T20:43:09.488Z,63.63
2019-03-23T20:45:41.818Z,63.84
2019-03-23T20:48:13.004Z,63.39
2019-03-23T20:50:45.384Z,63.54
2019-03-23T20:53:16.439Z,63.41
2019-03-23T20:55:47.752Z,63.84
2019-03-23T20:58:19.051Z,63.75
2019-03-23T21:00:49.991Z,63.88
2019-03-23T21:03:21.114Z,64.19
2019-03-23T21:05:52.279Z,63.53
2019-03-23T21:08:23.503Z,63.62
2019-03-23T21:10:54.618Z,63.30
2019-03-23T21:13:25.810Z,63.39
2019-03-23T21:15:56.913Z,63.96
2019-03-23T21:18:27.994Z,63.46
2019-03-23T21:20:59.196Z,63.22
2019-03-23T21:23:30.280Z,63.14
2019-03-23T21:26:01.505Z,63.41
2019-03-23T21:28:32.856Z,63.25
2019-03-23T21:31:04.080Z,63.02
2019-03-23T21:33:38.932Z,63.23
2019-03-23T21:36:09.305Z,63.43
2019-03-23T21:38:40.423Z,63.49
2019-03-23T21:41:11.642Z,63.27
2019-03-23T21:43:42.803Z,63.62
2019-03-23T21:46:13.963Z,63.49
2019-03-23T21:48:45.173Z,64.07
2019-03-23T21:51:16.281Z,64.04
2019-03-23T21:53:47.404Z,63.86
2019-03-23T21:56:18.513Z,63.82
2019-03-23T21:58:49.902Z,63.81
2019-03-23T22:01:21.013Z,63.61
2019-03-23T22:03:52.258Z,63.76
2019-03-23T22:06:23.532Z,63.70
2019-03-23T22:08:54.634Z,63.69
2019-03-23T22:11:25.834Z,63.74
2019-03-23T22:13:56.996Z,63.79
2019-03-23T22:16:28.238Z,63.54
2019-03-23T22:19:00.472Z,63.26
2019-03-23T22:21:31.497Z,63.73
2019-03-23T22:24:02.720Z,63.64
2019-03-23T22:26:33.801Z,63.95
2019-03-23T22:29:04.854Z,64.04
2019-03-23T22:31:35.916Z,63.93
2019-03-23T22:34:07.178Z,64.01
2019-03-23T22:36:38.385Z,64.09
2019-03-23T22:39:09.438Z,64.25
2019-03-23T22:41:40.651Z,64.17
2019-03-23T22:44:11.914Z,64.49
2019-03-23T22:46:43.050Z,64.78
2019-03-23T22:49:14.277Z,64.82
2019-03-23T22:51:46.336Z,64.86
2019-03-23T22:54:17.431Z,64.91
2019-03-23T22:56:49.654Z,65.08
2019-03-23T22:59:21.038Z,65.08
2019-03-23T23:01:53.929Z,64.85
2019-03-23T23:04:25.116Z,65.11
2019-03-23T23:06:56.284Z,65.08
2019-03-23T23:09:27.358Z,65.03
2019-03-23T23:11:58.557Z,65.22
2019-03-23T23:14:29.651Z,64.90
2019-03-23T23:17:00.868Z,65.33
2019-03-23T23:19:32.036Z,65.42
2019-03-23T23:22:03.183Z,65.62
2019-03-23T23:24:34.242Z,65.66
2019-03-23T23:27:05.423Z,65.85
2019-03-23T23:29:36.613Z,66.12
2019-03-23T23:32:08.354Z,66.31
2019-03-23T23:34:40.657Z,66.38
2019-03-23T23:37:11.806Z,66.37
2019-03-23T23:39:43.059Z,66.35
2019-03-23T23:42:14.129Z,66.41
2019-03-23T23:44:45.242Z,66.58
2019-03-23T23:47:18.430Z,66.73
2019-03-23T23:49:49.481Z,66.51
2019-03-23T23:52:20.608Z,66.65
2019-03-23T23:54:51.690Z,66.67
2019-03-23T23:57:24.625Z,66.72
2019-03-23T23:59:56.921Z,66.65
